Ladd AAF Airfield
PAFB : now visible

Airfield :











YOU CAN JOIN US ON...

 
LOGIN :

Register | Disclaimer

   EN    FR    IT 

 









Legend :    VFR   Marginal VFR   IFR   Intensive IFR   Very Intensive IFR
Visi :
Ceiling :
>= 8 km
>= 3000ft
5 to 8 km
1000 to 3000 ft
1500m to 5 km
500 to 1000 ft
800 to 1500m
200 to 500 ft
< 800m
< 200 ft
Symbols :   Thunderstorms  Fog  Heavy snow  Heavy precipitations  Wind > 20 kt






- Airport Elevation : 454 ft
- IATA code : FBK


PAFB - Ladd AAF

CURRENT METAR :
  • 260258Z AUTO 00000KT 10SM CLR M33/M36 A2997 RMK AO2 SLP171 T13281359 53001 $

EXPIRED METARs :
  • 260158Z AUTO 00000KT 10SM CLR M33/M36 A2996 RMK AO2 SLP168 T13261356 $
  • 260058Z AUTO 00000KT 10SM CLR M31/M34 A2996 RMK AO2 SLP167 T13131341 $

TAF TAF PAFB
Valid from the 25 at 08:00 until the 26 at 14:00 UTC


250800Z 2508/2614 01005KT 9999 FEW040 SCT060 OVC100 621002 QNH2982INS
TEMPO 2508/2511 8000 -SN BKN040 620402
BECMG 2516/2517 03005KT 9999 FEW050 QNH2992INS
TEMPO 2517/2602 03012G18KT TXM19/2508Z TNM29/2608Z LAST NO AMDS AFT 2508 NEXT 2716



MET'MAP, your aeronautical weather chart ! - Copyright ORBIFLY December 2007 - Disclaimer

ORBIFLY MET'MAP TEAM :

Programming & Development : Alexandra Zaïnal
Concept & original design : Baudouin d'Aumeries
Assistance for programming : Marc-Olivier Méhu
Technical & hardware support : Manuel Goepfert

Contact : metmap@orbifly.com




SOURCES & CREDITS :

   NOAA       Earth
Advisory